sensor_id;sensor_type;location;lat;lon;timestamp;P1;durP1;ratioP1;P2;durP2;ratioP2
66380;SDS011;53177;52.648;1.214;2023-05-07T00:00:59;43.03;;;16.75;;
66380;SDS011;53177;52.648;1.214;2023-05-07T00:03:24;37.17;;;15.73;;
66380;SDS011;53177;52.648;1.214;2023-05-07T00:05:51;43.97;;;16.55;;
66380;SDS011;53177;52.648;1.214;2023-05-07T00:08:17;39.78;;;16.60;;
66380;SDS011;53177;52.648;1.214;2023-05-07T00:10:43;41.47;;;17.83;;
66380;SDS011;53177;52.648;1.214;2023-05-07T00:13:08;42.37;;;17.93;;
66380;SDS011;53177;52.648;1.214;2023-05-07T00:15:34;40.10;;;17.00;;
66380;SDS011;53177;52.648;1.214;2023-05-07T00:17:59;45.28;;;18.48;;
66380;SDS011;53177;52.648;1.214;2023-05-07T00:20:25;43.47;;;17.87;;
66380;SDS011;53177;52.648;1.214;2023-05-07T00:22:50;45.27;;;18.87;;
66380;SDS011;53177;52.648;1.214;2023-05-07T00:25:16;43.33;;;17.97;;
66380;SDS011;53177;52.648;1.214;2023-05-07T00:27:41;44.88;;;18.23;;
66380;SDS011;53177;52.648;1.214;2023-05-07T00:30:07;46.43;;;18.40;;
66380;SDS011;53177;52.648;1.214;2023-05-07T00:32:33;47.80;;;18.33;;
66380;SDS011;53177;52.648;1.214;2023-05-07T00:34:58;44.17;;;18.40;;
66380;SDS011;53177;52.648;1.214;2023-05-07T00:37:23;51.07;;;20.43;;
66380;SDS011;53177;52.648;1.214;2023-05-07T00:39:49;54.30;;;19.40;;
66380;SDS011;53177;52.648;1.214;2023-05-07T00:42:14;47.70;;;19.30;;
66380;SDS011;53177;52.648;1.214;2023-05-07T00:44:43;48.80;;;19.80;;
66380;SDS011;53177;52.648;1.214;2023-05-07T00:47:08;51.70;;;19.97;;
66380;SDS011;53177;52.648;1.214;2023-05-07T00:52:11;50.33;;;19.60;;
66380;SDS011;53177;52.648;1.214;2023-05-07T00:54:39;52.28;;;21.20;;
66380;SDS011;53177;52.648;1.214;2023-05-07T00:57:06;56.90;;;21.73;;
66380;SDS011;53177;52.648;1.214;2023-05-07T00:59:31;60.10;;;21.87;;
66380;SDS011;53177;52.648;1.214;2023-05-07T01:01:58;55.53;;;21.73;;
66380;SDS011;53177;52.648;1.214;2023-05-07T01:04:24;56.80;;;21.17;;
66380;SDS011;53177;52.648;1.214;2023-05-07T01:06:49;59.43;;;22.20;;
66380;SDS011;53177;52.648;1.214;2023-05-07T01:09:16;66.65;;;24.35;;
66380;SDS011;53177;52.648;1.214;2023-05-07T01:11:42;60.55;;;23.63;;
66380;SDS011;53177;52.648;1.214;2023-05-07T01:14:08;61.88;;;22.55;;
66380;SDS011;53177;52.648;1.214;2023-05-07T01:16:34;68.67;;;22.90;;
66380;SDS011;53177;52.648;1.214;2023-05-07T01:19:00;58.88;;;21.98;;
66380;SDS011;53177;52.648;1.214;2023-05-07T01:21:26;58.00;;;21.97;;
66380;SDS011;53177;52.648;1.214;2023-05-07T01:23:52;60.88;;;22.70;;
66380;SDS011;53177;52.648;1.214;2023-05-07T01:26:18;58.55;;;21.90;;
66380;SDS011;53177;52.648;1.214;2023-05-07T01:28:44;67.40;;;24.50;;
66380;SDS011;53177;52.648;1.214;2023-05-07T01:31:10;61.92;;;22.67;;
66380;SDS011;53177;52.648;1.214;2023-05-07T01:33:38;60.08;;;23.30;;
66380;SDS011;53177;52.648;1.214;2023-05-07T01:36:07;60.80;;;23.35;;
66380;SDS011;53177;52.648;1.214;2023-05-07T01:38:33;62.88;;;21.92;;
66380;SDS011;53177;52.648;1.214;2023-05-07T01:41:01;66.68;;;24.10;;
66380;SDS011;53177;52.648;1.214;2023-05-07T01:43:27;59.13;;;23.13;;
66380;SDS011;53177;52.648;1.214;2023-05-07T01:45:54;58.55;;;22.20;;
66380;SDS011;53177;52.648;1.214;2023-05-07T01:48:20;64.50;;;24.65;;
66380;SDS011;53177;52.648;1.214;2023-05-07T01:50:46;62.00;;;22.13;;
66380;SDS011;53177;52.648;1.214;2023-05-07T01:53:12;75.15;;;25.83;;
66380;SDS011;53177;52.648;1.214;2023-05-07T01:55:38;66.33;;;25.17;;
66380;SDS011;53177;52.648;1.214;2023-05-07T01:58:03;66.67;;;23.77;;
66380;SDS011;53177;52.648;1.214;2023-05-07T02:00:29;64.05;;;23.17;;
66380;SDS011;53177;52.648;1.214;2023-05-07T02:02:54;59.78;;;22.67;;
66380;SDS011;53177;52.648;1.214;2023-05-07T02:05:20;61.73;;;24.20;;
66380;SDS011;53177;52.648;1.214;2023-05-07T02:07:45;66.60;;;24.57;;
66380;SDS011;53177;52.648;1.214;2023-05-07T02:10:11;68.00;;;24.13;;
66380;SDS011;53177;52.648;1.214;2023-05-07T02:12:36;70.70;;;25.17;;
66380;SDS011;53177;52.648;1.214;2023-05-07T02:15:01;63.05;;;22.88;;
66380;SDS011;53177;52.648;1.214;2023-05-07T02:17:27;63.07;;;24.03;;
66380;SDS011;53177;52.648;1.214;2023-05-07T02:19:56;72.60;;;24.98;;
66380;SDS011;53177;52.648;1.214;2023-05-07T02:22:22;66.47;;;24.73;;
66380;SDS011;53177;52.648;1.214;2023-05-07T02:24:47;64.23;;;24.20;;
66380;SDS011;53177;52.648;1.214;2023-05-07T02:27:12;78.55;;;26.67;;
66380;SDS011;53177;52.648;1.214;2023-05-07T02:29:38;66.57;;;23.17;;
66380;SDS011;53177;52.648;1.214;2023-05-07T02:32:04;70.75;;;25.02;;
66380;SDS011;53177;52.648;1.214;2023-05-07T02:34:29;64.20;;;23.67;;
66380;SDS011;53177;52.648;1.214;2023-05-07T02:36:55;66.03;;;24.70;;
66380;SDS011;53177;52.648;1.214;2023-05-07T02:39:20;64.37;;;24.57;;
66380;SDS011;53177;52.648;1.214;2023-05-07T02:41:46;68.20;;;24.13;;
66380;SDS011;53177;52.648;1.214;2023-05-07T02:44:11;67.50;;;24.07;;
66380;SDS011;53177;52.648;1.214;2023-05-07T02:46:37;73.80;;;24.33;;
66380;SDS011;53177;52.648;1.214;2023-05-07T02:49:03;71.40;;;23.60;;
66380;SDS011;53177;52.648;1.214;2023-05-07T02:51:29;63.27;;;23.20;;
66380;SDS011;53177;52.648;1.214;2023-05-07T02:53:55;56.28;;;22.38;;
66380;SDS011;53177;52.648;1.214;2023-05-07T02:56:20;57.33;;;21.70;;
66380;SDS011;53177;52.648;1.214;2023-05-07T02:58:46;58.40;;;22.80;;
66380;SDS011;53177;52.648;1.214;2023-05-07T03:01:11;59.67;;;23.27;;
66380;SDS011;53177;52.648;1.214;2023-05-07T03:03:38;65.43;;;23.90;;
66380;SDS011;53177;52.648;1.214;2023-05-07T03:06:04;62.00;;;24.08;;
66380;SDS011;53177;52.648;1.214;2023-05-07T03:08:30;65.63;;;23.93;;
66380;SDS011;53177;52.648;1.214;2023-05-07T03:10:55;63.40;;;24.17;;
66380;SDS011;53177;52.648;1.214;2023-05-07T03:13:21;68.57;;;24.23;;
66380;SDS011;53177;52.648;1.214;2023-05-07T03:15:46;69.20;;;24.67;;
66380;SDS011;53177;52.648;1.214;2023-05-07T03:18:11;65.25;;;23.77;;
66380;SDS011;53177;52.648;1.214;2023-05-07T03:20:37;76.63;;;25.07;;
66380;SDS011;53177;52.648;1.214;2023-05-07T03:23:02;65.30;;;23.80;;
66380;SDS011;53177;52.648;1.214;2023-05-07T03:25:28;70.90;;;24.27;;
66380;SDS011;53177;52.648;1.214;2023-05-07T03:27:54;67.93;;;23.27;;
66380;SDS011;53177;52.648;1.214;2023-05-07T03:30:20;67.20;;;22.52;;
66380;SDS011;53177;52.648;1.214;2023-05-07T03:32:45;68.03;;;23.50;;
66380;SDS011;53177;52.648;1.214;2023-05-07T03:35:11;70.50;;;23.80;;
66380;SDS011;53177;52.648;1.214;2023-05-07T03:37:37;71.53;;;23.20;;
66380;SDS011;53177;52.648;1.214;2023-05-07T03:40:03;77.13;;;23.73;;
66380;SDS011;53177;52.648;1.214;2023-05-07T03:42:28;66.97;;;23.60;;
66380;SDS011;53177;52.648;1.214;2023-05-07T03:44:55;77.38;;;23.80;;
66380;SDS011;53177;52.648;1.214;2023-05-07T03:47:23;77.18;;;24.42;;
66380;SDS011;53177;52.648;1.214;2023-05-07T03:49:48;78.73;;;24.83;;
66380;SDS011;53177;52.648;1.214;2023-05-07T03:52:15;72.80;;;23.33;;
66380;SDS011;53177;52.648;1.214;2023-05-07T03:54:41;67.17;;;21.67;;
66380;SDS011;53177;52.648;1.214;2023-05-07T03:57:06;70.87;;;24.13;;
66380;SDS011;53177;52.648;1.214;2023-05-07T03:59:31;66.13;;;22.08;;
66380;SDS011;53177;52.648;1.214;2023-05-07T04:01:57;74.03;;;22.52;;
66380;SDS011;53177;52.648;1.214;2023-05-07T04:04:23;63.53;;;21.13;;
66380;SDS011;53177;52.648;1.214;2023-05-07T04:06:48;71.35;;;22.77;;
66380;SDS011;53177;52.648;1.214;2023-05-07T04:09:14;61.60;;;22.23;;
66380;SDS011;53177;52.648;1.214;2023-05-07T04:11:39;64.17;;;21.40;;
66380;SDS011;53177;52.648;1.214;2023-05-07T04:14:05;65.43;;;21.57;;
66380;SDS011;53177;52.648;1.214;2023-05-07T04:16:31;69.15;;;21.95;;
66380;SDS011;53177;52.648;1.214;2023-05-07T04:18:56;62.10;;;21.30;;
66380;SDS011;53177;52.648;1.214;2023-05-07T04:21:21;64.73;;;21.87;;
66380;SDS011;53177;52.648;1.214;2023-05-07T04:23:47;59.15;;;20.75;;
66380;SDS011;53177;52.648;1.214;2023-05-07T04:26:13;61.47;;;21.53;;
66380;SDS011;53177;52.648;1.214;2023-05-07T04:28:39;57.75;;;20.33;;
66380;SDS011;53177;52.648;1.214;2023-05-07T04:31:05;53.08;;;18.65;;
66380;SDS011;53177;52.648;1.214;2023-05-07T04:33:31;57.10;;;19.83;;
66380;SDS011;53177;52.648;1.214;2023-05-07T04:35:57;57.73;;;19.50;;
66380;SDS011;53177;52.648;1.214;2023-05-07T04:38:27;54.38;;;19.25;;
66380;SDS011;53177;52.648;1.214;2023-05-07T04:40:53;54.83;;;18.73;;
66380;SDS011;53177;52.648;1.214;2023-05-07T04:43:18;53.10;;;18.93;;
66380;SDS011;53177;52.648;1.214;2023-05-07T04:45:43;61.70;;;19.75;;
66380;SDS011;53177;52.648;1.214;2023-05-07T04:48:09;60.33;;;19.37;;
66380;SDS011;53177;52.648;1.214;2023-05-07T04:50:34;55.77;;;20.07;;
66380;SDS011;53177;52.648;1.214;2023-05-07T04:53:00;55.70;;;19.60;;
66380;SDS011;53177;52.648;1.214;2023-05-07T04:55:26;57.97;;;20.17;;
66380;SDS011;53177;52.648;1.214;2023-05-07T04:57:51;62.43;;;20.80;;
66380;SDS011;53177;52.648;1.214;2023-05-07T05:00:17;55.63;;;19.25;;
66380;SDS011;53177;52.648;1.214;2023-05-07T05:02:44;61.80;;;21.17;;
66380;SDS011;53177;52.648;1.214;2023-05-07T05:05:10;65.00;;;20.67;;
66380;SDS011;53177;52.648;1.214;2023-05-07T05:07:36;61.83;;;21.10;;
66380;SDS011;53177;52.648;1.214;2023-05-07T05:10:02;62.88;;;21.58;;
66380;SDS011;53177;52.648;1.214;2023-05-07T05:12:28;60.33;;;19.90;;
66380;SDS011;53177;52.648;1.214;2023-05-07T05:14:54;59.92;;;20.00;;
66380;SDS011;53177;52.648;1.214;2023-05-07T05:17:19;59.30;;;21.23;;
66380;SDS011;53177;52.648;1.214;2023-05-07T05:19:45;67.10;;;22.13;;
66380;SDS011;53177;52.648;1.214;2023-05-07T05:22:10;64.45;;;21.50;;
66380;SDS011;53177;52.648;1.214;2023-05-07T05:24:36;67.67;;;20.43;;
66380;SDS011;53177;52.648;1.214;2023-05-07T05:27:01;73.47;;;22.17;;
66380;SDS011;53177;52.648;1.214;2023-05-07T05:29:27;60.22;;;20.05;;
66380;SDS011;53177;52.648;1.214;2023-05-07T05:31:52;64.00;;;21.65;;
66380;SDS011;53177;52.648;1.214;2023-05-07T05:34:18;64.13;;;20.80;;
66380;SDS011;53177;52.648;1.214;2023-05-07T05:36:44;58.67;;;20.95;;
66380;SDS011;53177;52.648;1.214;2023-05-07T05:39:10;60.17;;;20.20;;
66380;SDS011;53177;52.648;1.214;2023-05-07T05:41:37;71.33;;;21.60;;
66380;SDS011;53177;52.648;1.214;2023-05-07T05:44:03;60.53;;;19.60;;
66380;SDS011;53177;52.648;1.214;2023-05-07T05:46:28;56.30;;;19.53;;
66380;SDS011;53177;52.648;1.214;2023-05-07T05:48:54;55.90;;;20.15;;
66380;SDS011;53177;52.648;1.214;2023-05-07T05:51:20;63.63;;;20.27;;
66380;SDS011;53177;52.648;1.214;2023-05-07T05:53:46;57.67;;;19.65;;
66380;SDS011;53177;52.648;1.214;2023-05-07T05:56:11;53.53;;;19.17;;
66380;SDS011;53177;52.648;1.214;2023-05-07T05:58:36;57.40;;;19.87;;
66380;SDS011;53177;52.648;1.214;2023-05-07T06:01:02;52.50;;;18.07;;
66380;SDS011;53177;52.648;1.214;2023-05-07T06:03:28;56.95;;;20.25;;
66380;SDS011;53177;52.648;1.214;2023-05-07T06:05:53;54.00;;;19.00;;
66380;SDS011;53177;52.648;1.214;2023-05-07T06:08:18;53.63;;;18.50;;
66380;SDS011;53177;52.648;1.214;2023-05-07T06:10:44;55.78;;;18.40;;
66380;SDS011;53177;52.648;1.214;2023-05-07T06:13:10;56.37;;;18.97;;
66380;SDS011;53177;52.648;1.214;2023-05-07T06:15:35;52.63;;;18.23;;
66380;SDS011;53177;52.648;1.214;2023-05-07T06:18:01;55.17;;;19.00;;
66380;SDS011;53177;52.648;1.214;2023-05-07T06:20:26;50.03;;;17.57;;
66380;SDS011;53177;52.648;1.214;2023-05-07T06:22:51;48.33;;;18.20;;
66380;SDS011;53177;52.648;1.214;2023-05-07T06:25:17;51.37;;;18.13;;
66380;SDS011;53177;52.648;1.214;2023-05-07T06:27:42;52.40;;;17.87;;
66380;SDS011;53177;52.648;1.214;2023-05-07T06:30:08;48.20;;;17.45;;
66380;SDS011;53177;52.648;1.214;2023-05-07T06:32:33;50.35;;;16.70;;
66380;SDS011;53177;52.648;1.214;2023-05-07T06:34:59;46.40;;;16.97;;
66380;SDS011;53177;52.648;1.214;2023-05-07T06:37:25;49.35;;;16.85;;
66380;SDS011;53177;52.648;1.214;2023-05-07T06:39:50;47.63;;;16.90;;
66380;SDS011;53177;52.648;1.214;2023-05-07T06:42:15;46.63;;;17.10;;
66380;SDS011;53177;52.648;1.214;2023-05-07T06:44:41;44.45;;;17.40;;
66380;SDS011;53177;52.648;1.214;2023-05-07T06:47:06;45.05;;;17.90;;
66380;SDS011;53177;52.648;1.214;2023-05-07T06:49:32;45.47;;;16.70;;
66380;SDS011;53177;52.648;1.214;2023-05-07T06:51:58;41.75;;;15.05;;
66380;SDS011;53177;52.648;1.214;2023-05-07T06:54:23;41.93;;;15.20;;
66380;SDS011;53177;52.648;1.214;2023-05-07T06:56:48;41.27;;;15.67;;
66380;SDS011;53177;52.648;1.214;2023-05-07T06:59:14;35.33;;;13.73;;
66380;SDS011;53177;52.648;1.214;2023-05-07T07:01:40;39.67;;;14.25;;
66380;SDS011;53177;52.648;1.214;2023-05-07T07:04:05;35.50;;;13.27;;
66380;SDS011;53177;52.648;1.214;2023-05-07T07:06:31;33.17;;;13.63;;
66380;SDS011;53177;52.648;1.214;2023-05-07T07:08:57;33.67;;;13.35;;
66380;SDS011;53177;52.648;1.214;2023-05-07T07:11:23;34.25;;;12.73;;
66380;SDS011;53177;52.648;1.214;2023-05-07T07:13:48;31.27;;;12.70;;
66380;SDS011;53177;52.648;1.214;2023-05-07T07:16:14;32.47;;;13.27;;
66380;SDS011;53177;52.648;1.214;2023-05-07T07:18:39;34.80;;;13.60;;
66380;SDS011;53177;52.648;1.214;2023-05-07T07:21:05;32.40;;;13.27;;
66380;SDS011;53177;52.648;1.214;2023-05-07T07:23:30;27.97;;;11.50;;
66380;SDS011;53177;52.648;1.214;2023-05-07T07:25:55;31.90;;;14.17;;
66380;SDS011;53177;52.648;1.214;2023-05-07T07:28:21;30.73;;;12.60;;
66380;SDS011;53177;52.648;1.214;2023-05-07T07:30:47;28.45;;;12.70;;
66380;SDS011;53177;52.648;1.214;2023-05-07T07:33:12;29.63;;;12.83;;
66380;SDS011;53177;52.648;1.214;2023-05-07T07:35:38;27.53;;;11.70;;
66380;SDS011;53177;52.648;1.214;2023-05-07T07:38:03;28.55;;;12.13;;
66380;SDS011;53177;52.648;1.214;2023-05-07T07:40:29;27.47;;;11.97;;
66380;SDS011;53177;52.648;1.214;2023-05-07T07:42:54;30.37;;;13.50;;
66380;SDS011;53177;52.648;1.214;2023-05-07T07:45:21;27.77;;;13.05;;
66380;SDS011;53177;52.648;1.214;2023-05-07T07:47:47;30.10;;;12.67;;
66380;SDS011;53177;52.648;1.214;2023-05-07T07:50:12;29.13;;;12.63;;
66380;SDS011;53177;52.648;1.214;2023-05-07T07:52:38;28.37;;;11.90;;
66380;SDS011;53177;52.648;1.214;2023-05-07T07:55:03;28.30;;;12.30;;
66380;SDS011;53177;52.648;1.214;2023-05-07T07:57:29;27.05;;;11.75;;
66380;SDS011;53177;52.648;1.214;2023-05-07T07:59:56;27.80;;;12.68;;
66380;SDS011;53177;52.648;1.214;2023-05-07T08:02:22;28.63;;;11.83;;
66380;SDS011;53177;52.648;1.214;2023-05-07T08:04:47;29.10;;;12.77;;
66380;SDS011;53177;52.648;1.214;2023-05-07T08:07:12;31.83;;;12.17;;
66380;SDS011;53177;52.648;1.214;2023-05-07T08:09:38;23.67;;;11.20;;
66380;SDS011;53177;52.648;1.214;2023-05-07T08:12:04;26.40;;;12.13;;
66380;SDS011;53177;52.648;1.214;2023-05-07T08:14:31;28.30;;;11.73;;
66380;SDS011;53177;52.648;1.214;2023-05-07T08:16:56;25.90;;;11.83;;
66380;SDS011;53177;52.648;1.214;2023-05-07T08:19:22;28.80;;;11.97;;
66380;SDS011;53177;52.648;1.214;2023-05-07T08:21:47;27.98;;;12.20;;
66380;SDS011;53177;52.648;1.214;2023-05-07T08:24:13;26.23;;;11.43;;
66380;SDS011;53177;52.648;1.214;2023-05-07T08:26:39;25.05;;;11.00;;
66380;SDS011;53177;52.648;1.214;2023-05-07T08:29:05;26.17;;;11.30;;
66380;SDS011;53177;52.648;1.214;2023-05-07T08:31:30;25.27;;;11.98;;
66380;SDS011;53177;52.648;1.214;2023-05-07T08:33:56;27.50;;;11.97;;
66380;SDS011;53177;52.648;1.214;2023-05-07T08:36:22;26.92;;;11.60;;
66380;SDS011;53177;52.648;1.214;2023-05-07T08:38:48;28.20;;;11.43;;
66380;SDS011;53177;52.648;1.214;2023-05-07T08:41:14;28.55;;;12.45;;
66380;SDS011;53177;52.648;1.214;2023-05-07T08:43:40;26.87;;;11.60;;
66380;SDS011;53177;52.648;1.214;2023-05-07T08:46:06;27.42;;;11.88;;
66380;SDS011;53177;52.648;1.214;2023-05-07T08:48:35;26.95;;;11.90;;
66380;SDS011;53177;52.648;1.214;2023-05-07T08:51:01;29.65;;;11.27;;
66380;SDS011;53177;52.648;1.214;2023-05-07T08:53:27;29.27;;;12.05;;
66380;SDS011;53177;52.648;1.214;2023-05-07T08:55:52;29.63;;;12.20;;
66380;SDS011;53177;52.648;1.214;2023-05-07T08:58:18;30.20;;;12.57;;
66380;SDS011;53177;52.648;1.214;2023-05-07T09:00:44;29.67;;;12.48;;
66380;SDS011;53177;52.648;1.214;2023-05-07T09:03:09;30.47;;;12.07;;
66380;SDS011;53177;52.648;1.214;2023-05-07T09:05:39;29.88;;;12.60;;
66380;SDS011;53177;52.648;1.214;2023-05-07T09:08:05;29.80;;;12.03;;
66380;SDS011;53177;52.648;1.214;2023-05-07T09:10:32;26.88;;;12.30;;
66380;SDS011;53177;52.648;1.214;2023-05-07T09:12:58;28.02;;;12.45;;
66380;SDS011;53177;52.648;1.214;2023-05-07T09:15:24;27.13;;;12.17;;
66380;SDS011;53177;52.648;1.214;2023-05-07T09:17:50;26.02;;;12.05;;
66380;SDS011;53177;52.648;1.214;2023-05-07T09:20:15;25.77;;;11.70;;
66380;SDS011;53177;52.648;1.214;2023-05-07T09:22:42;24.33;;;11.07;;
66380;SDS011;53177;52.648;1.214;2023-05-07T09:25:09;24.23;;;11.00;;
66380;SDS011;53177;52.648;1.214;2023-05-07T09:27:34;25.70;;;12.43;;
66380;SDS011;53177;52.648;1.214;2023-05-07T09:30:02;26.17;;;11.13;;
66380;SDS011;53177;52.648;1.214;2023-05-07T09:32:33;24.75;;;11.40;;
66380;SDS011;53177;52.648;1.214;2023-05-07T09:34:59;23.77;;;10.27;;
66380;SDS011;53177;52.648;1.214;2023-05-07T09:37:25;24.00;;;10.57;;
66380;SDS011;53177;52.648;1.214;2023-05-07T09:39:51;22.40;;;10.57;;
66380;SDS011;53177;52.648;1.214;2023-05-07T09:42:22;17.63;;;9.50;;
66380;SDS011;53177;52.648;1.214;2023-05-07T09:44:48;19.30;;;9.40;;
66380;SDS011;53177;52.648;1.214;2023-05-07T09:47:15;18.77;;;9.87;;
66380;SDS011;53177;52.648;1.214;2023-05-07T09:49:45;19.42;;;9.00;;
66380;SDS011;53177;52.648;1.214;2023-05-07T09:52:13;17.88;;;9.30;;
66380;SDS011;53177;52.648;1.214;2023-05-07T09:54:38;16.70;;;8.80;;
66380;SDS011;53177;52.648;1.214;2023-05-07T09:57:05;19.27;;;9.70;;
66380;SDS011;53177;52.648;1.214;2023-05-07T09:59:32;19.83;;;9.55;;
66380;SDS011;53177;52.648;1.214;2023-05-07T10:01:58;16.60;;;8.93;;
66380;SDS011;53177;52.648;1.214;2023-05-07T10:04:25;19.70;;;9.60;;
66380;SDS011;53177;52.648;1.214;2023-05-07T10:06:51;20.00;;;8.75;;
66380;SDS011;53177;52.648;1.214;2023-05-07T10:09:18;18.83;;;9.07;;
66380;SDS011;53177;52.648;1.214;2023-05-07T10:11:44;16.33;;;8.23;;
66380;SDS011;53177;52.648;1.214;2023-05-07T10:14:10;17.15;;;9.15;;
66380;SDS011;53177;52.648;1.214;2023-05-07T10:16:36;18.43;;;9.10;;
66380;SDS011;53177;52.648;1.214;2023-05-07T10:19:06;16.60;;;8.60;;
66380;SDS011;53177;52.648;1.214;2023-05-07T10:21:35;19.20;;;9.32;;
66380;SDS011;53177;52.648;1.214;2023-05-07T10:27:02;16.95;;;8.60;;
66380;SDS011;53177;52.648;1.214;2023-05-07T10:34:56;17.42;;;8.45;;
66380;SDS011;53177;52.648;1.214;2023-05-07T10:37:27;16.45;;;8.38;;
66380;SDS011;53177;52.648;1.214;2023-05-07T10:39:54;18.10;;;8.95;;
66380;SDS011;53177;52.648;1.214;2023-05-07T10:42:19;15.30;;;8.10;;
66380;SDS011;53177;52.648;1.214;2023-05-07T10:44:45;13.80;;;7.67;;
66380;SDS011;53177;52.648;1.214;2023-05-07T10:47:11;17.27;;;8.67;;
66380;SDS011;53177;52.648;1.214;2023-05-07T10:52:16;14.82;;;7.63;;
66380;SDS011;53177;52.648;1.214;2023-05-07T10:54:43;15.45;;;7.97;;
66380;SDS011;53177;52.648;1.214;2023-05-07T11:05:26;14.50;;;7.85;;
66380;SDS011;53177;52.648;1.214;2023-05-07T11:07:56;13.80;;;7.10;;
66380;SDS011;53177;52.648;1.214;2023-05-07T11:10:34;13.20;;;7.43;;
66380;SDS011;53177;52.648;1.214;2023-05-07T11:16:21;15.98;;;7.78;;
66380;SDS011;53177;52.648;1.214;2023-05-07T11:18:51;15.45;;;8.18;;
66380;SDS011;53177;52.648;1.214;2023-05-07T11:21:31;13.85;;;7.90;;
66380;SDS011;53177;52.648;1.214;2023-05-07T11:23:57;17.45;;;9.05;;
66380;SDS011;53177;52.648;1.214;2023-05-07T11:26:23;16.13;;;8.53;;
66380;SDS011;53177;52.648;1.214;2023-05-07T11:28:50;18.90;;;9.45;;
66380;SDS011;53177;52.648;1.214;2023-05-07T11:31:20;18.10;;;8.75;;
66380;SDS011;53177;52.648;1.214;2023-05-07T11:33:48;14.68;;;8.07;;
66380;SDS011;53177;52.648;1.214;2023-05-07T11:36:14;15.50;;;8.18;;
66380;SDS011;53177;52.648;1.214;2023-05-07T11:38:40;14.53;;;7.93;;
66380;SDS011;53177;52.648;1.214;2023-05-07T11:41:06;14.15;;;7.70;;
66380;SDS011;53177;52.648;1.214;2023-05-07T11:43:32;14.48;;;8.43;;
66380;SDS011;53177;52.648;1.214;2023-05-07T11:46:08;18.15;;;9.27;;
66380;SDS011;53177;52.648;1.214;2023-05-07T11:48:34;17.85;;;8.80;;
66380;SDS011;53177;52.648;1.214;2023-05-07T11:51:01;19.70;;;9.18;;
66380;SDS011;53177;52.648;1.214;2023-05-07T11:53:34;20.35;;;9.30;;
66380;SDS011;53177;52.648;1.214;2023-05-07T11:56:12;15.80;;;8.40;;
66380;SDS011;53177;52.648;1.214;2023-05-07T11:58:39;15.85;;;8.00;;
66380;SDS011;53177;52.648;1.214;2023-05-07T12:01:07;18.75;;;9.20;;
66380;SDS011;53177;52.648;1.214;2023-05-07T12:03:37;15.25;;;8.13;;
66380;SDS011;53177;52.648;1.214;2023-05-07T12:06:07;15.77;;;7.90;;
66380;SDS011;53177;52.648;1.214;2023-05-07T12:08:35;14.18;;;7.60;;
66380;SDS011;53177;52.648;1.214;2023-05-07T12:11:01;14.10;;;7.65;;
66380;SDS011;53177;52.648;1.214;2023-05-07T12:13:27;12.43;;;7.40;;
66380;SDS011;53177;52.648;1.214;2023-05-07T12:15:53;10.53;;;6.63;;
66380;SDS011;53177;52.648;1.214;2023-05-07T12:18:19;13.68;;;6.70;;
66380;SDS011;53177;52.648;1.214;2023-05-07T12:20:45;13.45;;;7.35;;
66380;SDS011;53177;52.648;1.214;2023-05-07T12:23:12;11.32;;;6.07;;
66380;SDS011;53177;52.648;1.214;2023-05-07T12:25:38;10.40;;;5.60;;
66380;SDS011;53177;52.648;1.214;2023-05-07T12:28:04;9.40;;;5.10;;
66380;SDS011;53177;52.648;1.214;2023-05-07T12:30:39;7.28;;;3.83;;
66380;SDS011;53177;52.648;1.214;2023-05-07T12:33:05;9.65;;;4.90;;
66380;SDS011;53177;52.648;1.214;2023-05-07T12:35:32;8.07;;;3.83;;
66380;SDS011;53177;52.648;1.214;2023-05-07T12:38:01;9.23;;;4.80;;
66380;SDS011;53177;52.648;1.214;2023-05-07T12:40:37;10.38;;;4.95;;
66380;SDS011;53177;52.648;1.214;2023-05-07T12:43:07;9.15;;;4.97;;
66380;SDS011;53177;52.648;1.214;2023-05-07T12:45:41;9.98;;;5.00;;
66380;SDS011;53177;52.648;1.214;2023-05-07T12:48:07;9.67;;;4.47;;
66380;SDS011;53177;52.648;1.214;2023-05-07T12:50:34;7.25;;;3.97;;
66380;SDS011;53177;52.648;1.214;2023-05-07T12:53:00;8.50;;;4.27;;
66380;SDS011;53177;52.648;1.214;2023-05-07T12:55:30;10.57;;;5.18;;
66380;SDS011;53177;52.648;1.214;2023-05-07T12:57:56;10.18;;;5.45;;
66380;SDS011;53177;52.648;1.214;2023-05-07T13:00:38;8.13;;;4.67;;
66380;SDS011;53177;52.648;1.214;2023-05-07T13:03:03;10.45;;;5.10;;
66380;SDS011;53177;52.648;1.214;2023-05-07T13:05:29;13.48;;;6.80;;
66380;SDS011;53177;52.648;1.214;2023-05-07T13:07:55;17.95;;;8.55;;
66380;SDS011;53177;52.648;1.214;2023-05-07T13:10:22;11.40;;;6.03;;
66380;SDS011;53177;52.648;1.214;2023-05-07T13:12:49;12.57;;;6.55;;
66380;SDS011;53177;52.648;1.214;2023-05-07T13:15:15;9.48;;;4.80;;
66380;SDS011;53177;52.648;1.214;2023-05-07T13:17:41;9.77;;;4.85;;
66380;SDS011;53177;52.648;1.214;2023-05-07T13:20:08;8.30;;;4.43;;
66380;SDS011;53177;52.648;1.214;2023-05-07T13:22:35;10.80;;;4.57;;
66380;SDS011;53177;52.648;1.214;2023-05-07T13:25:00;9.97;;;4.70;;
66380;SDS011;53177;52.648;1.214;2023-05-07T13:27:26;8.37;;;4.70;;
66380;SDS011;53177;52.648;1.214;2023-05-07T13:29:51;8.93;;;3.87;;
66380;SDS011;53177;52.648;1.214;2023-05-07T13:32:16;8.75;;;4.57;;
66380;SDS011;53177;52.648;1.214;2023-05-07T13:34:42;9.57;;;4.60;;
66380;SDS011;53177;52.648;1.214;2023-05-07T13:37:10;7.80;;;4.60;;
66380;SDS011;53177;52.648;1.214;2023-05-07T13:39:36;9.77;;;5.17;;
66380;SDS011;53177;52.648;1.214;2023-05-07T13:42:02;8.27;;;4.60;;
66380;SDS011;53177;52.648;1.214;2023-05-07T13:44:27;8.93;;;4.70;;
66380;SDS011;53177;52.648;1.214;2023-05-07T13:46:52;7.33;;;4.20;;
66380;SDS011;53177;52.648;1.214;2023-05-07T13:49:18;8.97;;;5.80;;
66380;SDS011;53177;52.648;1.214;2023-05-07T13:51:43;10.07;;;5.50;;
66380;SDS011;53177;52.648;1.214;2023-05-07T13:54:09;10.73;;;4.40;;
66380;SDS011;53177;52.648;1.214;2023-05-07T13:56:34;7.10;;;4.10;;
66380;SDS011;53177;52.648;1.214;2023-05-07T13:59:00;8.37;;;4.73;;
66380;SDS011;53177;52.648;1.214;2023-05-07T14:01:25;8.30;;;4.70;;
66380;SDS011;53177;52.648;1.214;2023-05-07T14:03:51;7.20;;;4.60;;
66380;SDS011;53177;52.648;1.214;2023-05-07T14:06:17;7.60;;;4.50;;
66380;SDS011;53177;52.648;1.214;2023-05-07T14:08:42;7.33;;;4.43;;
66380;SDS011;53177;52.648;1.214;2023-05-07T14:11:07;9.10;;;4.70;;
66380;SDS011;53177;52.648;1.214;2023-05-07T14:13:33;8.07;;;4.88;;
66380;SDS011;53177;52.648;1.214;2023-05-07T14:15:59;7.17;;;4.40;;
66380;SDS011;53177;52.648;1.214;2023-05-07T14:18:25;7.45;;;4.03;;
66380;SDS011;53177;52.648;1.214;2023-05-07T14:20:51;7.10;;;4.25;;
66380;SDS011;53177;52.648;1.214;2023-05-07T14:23:16;8.70;;;4.87;;
66380;SDS011;53177;52.648;1.214;2023-05-07T14:25:44;8.32;;;4.30;;
66380;SDS011;53177;52.648;1.214;2023-05-07T14:28:11;9.50;;;4.47;;
66380;SDS011;53177;52.648;1.214;2023-05-07T14:30:36;7.53;;;4.20;;
66380;SDS011;53177;52.648;1.214;2023-05-07T14:33:01;7.23;;;4.17;;
66380;SDS011;53177;52.648;1.214;2023-05-07T14:35:27;8.43;;;4.60;;
66380;SDS011;53177;52.648;1.214;2023-05-07T14:37:52;10.00;;;5.00;;
66380;SDS011;53177;52.648;1.214;2023-05-07T14:40:18;8.50;;;4.57;;
66380;SDS011;53177;52.648;1.214;2023-05-07T14:42:45;7.72;;;4.40;;
66380;SDS011;53177;52.648;1.214;2023-05-07T14:45:10;11.33;;;5.63;;
66380;SDS011;53177;52.648;1.214;2023-05-07T14:47:35;11.07;;;5.30;;